Time;durP1;ratioP1;P1;durP2;ratioP2;P2;SDS_P1;SDS_P2;PMS_P1;PMS_P2;Temp;Humidity;BMP_temperature;BMP_pressure;BME280_temperature;BME280_humidity;BME280_pressure;Samples;Min_cycle;Max_cycle;Signal;HPM_P1;HPM_P2
2022/10/01 00:00:15;;;;;;;8.50;7.50;;;5.90;99.90;;;;;;4984692;28;20426;-71
2022/10/01 00:02:41;;;;;;;7.43;6.40;;;6.00;99.90;;;;;;4984828;28;20226;-71
2022/10/01 00:05:10;;;;;;;6.27;5.67;;;6.00;99.90;;;;;;4982510;28;20267;-72
2022/10/01 00:07:39;;;;;;;7.50;6.20;;;6.00;99.90;;;;;;4981414;28;20479;-71
2022/10/01 00:10:06;;;;;;;10.23;7.10;;;6.30;99.90;;;;;;4983163;28;20416;-71
2022/10/01 00:12:32;;;;;;;10.27;5.90;;;6.50;99.90;;;;;;4981104;28;20448;-71
2022/10/01 00:14:57;;;;;;;8.10;6.23;;;7.00;99.90;;;;;;4981962;28;20402;-71
2022/10/01 00:17:23;;;;;;;6.60;5.87;;;7.40;99.90;;;;;;4981241;28;20235;-71
2022/10/01 00:19:48;;;;;;;6.10;5.50;;;7.70;99.90;;;;;;4981127;28;20283;-73
2022/10/01 00:22:14;;;;;;;5.90;5.40;;;7.90;99.90;;;;;;4984303;28;20411;-71
2022/10/01 00:24:40;;;;;;;7.67;5.60;;;8.00;99.90;;;;;;4984414;28;20213;-72
2022/10/01 00:27:05;;;;;;;4.97;4.57;;;8.10;99.90;;;;;;4982440;28;20189;-72
2022/10/01 00:29:31;;;;;;;7.03;6.33;;;8.20;99.90;;;;;;4980946;28;20202;-72
2022/10/01 00:31:57;;;;;;;5.80;5.00;;;8.30;99.90;;;;;;4981698;28;20257;-71
2022/10/01 00:34:23;;;;;;;5.03;4.60;;;8.30;99.90;;;;;;4988151;28;20230;-72
2022/10/01 00:36:49;;;;;;;9.00;5.60;;;8.40;99.90;;;;;;4984488;28;20220;-71
2022/10/01 00:39:14;;;;;;;4.60;4.20;;;8.50;99.90;;;;;;4981024;28;20862;-71
2022/10/01 00:41:40;;;;;;;6.13;4.77;;;8.60;99.90;;;;;;4980649;28;20237;-71
2022/10/01 00:44:35;;;;;;;5.73;4.90;;;8.70;99.90;;;;;;4983107;28;20217;-71
2022/10/01 00:47:15;;;;;;;6.47;4.80;;;8.70;99.90;;;;;;4982668;28;20785;-72
2022/10/01 00:49:42;;;;;;;5.40;4.90;;;8.70;99.90;;;;;;4980668;28;20445;-71
2022/10/01 00:52:12;;;;;;;5.60;5.10;;;8.70;99.90;;;;;;4982728;28;20451;-71
2022/10/01 00:54:54;;;;;;;4.13;3.83;;;8.80;99.90;;;;;;4983935;28;20422;-71
2022/10/01 00:57:23;;;;;;;4.20;3.90;;;8.80;99.90;;;;;;4983899;28;20417;-72
2022/10/01 00:59:50;;;;;;;5.50;4.97;;;8.80;99.90;;;;;;4984018;28;20423;-71
2022/10/01 02:32:57;;;;;;;7.33;3.30;;;9.40;99.90;;;;;;5078951;22;20574;-69
2022/10/01 02:35:25;;;;;;;3.67;3.10;;;9.40;99.90;;;;;;5010453;28;20973;-70
2022/10/01 02:37:51;;;;;;;3.03;2.80;;;9.40;99.90;;;;;;5005986;28;20407;-71
2022/10/01 02:40:24;;;;;;;3.10;2.90;;;9.50;99.90;;;;;;5005750;28;20418;-70
2022/10/01 02:42:53;;;;;;;3.30;3.10;;;9.50;99.90;;;;;;5003665;28;20472;-72
2022/10/01 02:45:24;;;;;;;3.67;3.33;;;9.40;99.90;;;;;;4994812;28;20436;-72
2022/10/01 02:47:59;;;;;;;3.33;3.13;;;9.40;99.90;;;;;;5005965;28;20535;-71
2022/10/01 02:50:30;;;;;;;2.90;2.70;;;9.50;99.90;;;;;;4989948;28;20440;-71
2022/10/01 02:53:07;;;;;;;3.50;3.20;;;9.50;99.90;;;;;;4994001;28;20471;-71
2022/10/01 02:55:36;;;;;;;2.70;2.50;;;9.50;99.90;;;;;;4992460;28;20393;-71
2022/10/01 02:58:02;;;;;;;3.47;2.90;;;9.50;99.90;;;;;;4991993;28;20455;-72
2022/10/01 03:00:28;;;;;;;3.20;3.00;;;9.50;99.90;;;;;;4992321;28;20954;-71
2022/10/01 03:02:53;;;;;;;3.60;2.83;;;9.50;99.90;;;;;;5005372;28;20583;-70
2022/10/01 03:05:20;;;;;;;2.77;2.57;;;9.50;99.90;;;;;;4989411;28;20418;-70
2022/10/01 03:07:46;;;;;;;3.50;2.87;;;9.50;99.90;;;;;;4992307;28;20185;-72
2022/10/01 03:10:14;;;;;;;5.43;3.27;;;9.40;99.90;;;;;;4989264;28;20450;-71
2022/10/01 03:12:41;;;;;;;2.90;2.70;;;9.40;99.90;;;;;;5005696;28;20506;-71
2022/10/01 03:15:07;;;;;;;3.33;3.03;;;9.30;99.90;;;;;;4998145;28;20837;-72
2022/10/01 03:17:34;;;;;;;2.70;2.50;;;9.30;99.90;;;;;;4991451;28;20424;-71
2022/10/01 03:20:00;;;;;;;4.17;3.63;;;9.20;99.90;;;;;;4987511;28;20185;-71
2022/10/01 03:22:26;;;;;;;3.37;3.07;;;9.20;99.90;;;;;;5005407;28;20877;-71
2022/10/01 03:24:52;;;;;;;2.97;2.67;;;9.20;99.90;;;;;;5000335;28;20181;-71
2022/10/01 03:27:19;;;;;;;3.60;3.17;;;9.10;99.90;;;;;;4983639;28;20183;-72
2022/10/01 03:29:45;;;;;;;3.73;2.80;;;9.10;99.90;;;;;;4986275;28;20468;-71
2022/10/01 03:32:12;;;;;;;3.17;2.73;;;9.10;99.90;;;;;;5004001;28;20476;-70
2022/10/01 03:34:37;;;;;;;2.77;2.60;;;9.10;99.90;;;;;;5006761;28;20461;-71
2022/10/01 03:37:03;;;;;;;2.63;2.43;;;9.10;99.90;;;;;;5003025;28;20463;-70
2022/10/01 03:39:29;;;;;;;2.73;2.53;;;9.10;99.90;;;;;;4991522;28;20192;-71
2022/10/01 03:41:54;;;;;;;3.03;2.73;;;9.10;99.90;;;;;;5001412;28;20578;-70
2022/10/01 03:44:20;;;;;;;3.13;2.67;;;9.10;99.90;;;;;;5003975;28;20190;-71
2022/10/01 03:46:46;;;;;;;5.73;2.47;;;9.10;99.90;;;;;;4989163;28;20200;-71
2022/10/01 03:49:12;;;;;;;2.37;2.23;;;9.10;99.90;;;;;;5000297;28;20429;-71
2022/10/01 03:51:38;;;;;;;2.53;2.33;;;9.20;99.90;;;;;;5001240;28;20688;-70
2022/10/01 03:54:06;;;;;;;2.50;2.33;;;9.20;99.90;;;;;;5000830;28;20427;-71
2022/10/01 03:56:32;;;;;;;2.57;2.37;;;9.20;99.90;;;;;;4990115;28;20433;-70
2022/10/01 03:58:57;;;;;;;3.10;2.17;;;9.30;99.90;;;;;;4998276;28;20430;-70
2022/10/01 04:01:24;;;;;;;1.60;1.50;;;9.30;99.90;;;;;;5000091;28;20448;-70
2022/10/01 04:03:50;;;;;;;2.27;2.07;;;9.30;99.90;;;;;;4998582;28;20182;-71
2022/10/01 04:06:16;;;;;;;2.77;2.57;;;9.20;99.90;;;;;;4993005;28;20431;-72
2022/10/01 04:08:42;;;;;;;2.03;1.93;;;9.20;99.90;;;;;;4989483;28;20420;-70
2022/10/01 04:11:08;;;;;;;4.00;1.63;;;9.20;99.90;;;;;;4994379;28;20204;-70
2022/10/01 04:13:34;;;;;;;1.70;1.60;;;9.20;99.90;;;;;;4992106;28;20425;-69
2022/10/01 04:16:00;;;;;;;2.10;2.00;;;9.20;99.90;;;;;;5003450;28;20184;-70
2022/10/01 04:18:26;;;;;;;1.53;1.43;;;9.30;99.90;;;;;;4998399;28;20477;-70
2022/10/01 04:20:52;;;;;;;1.87;1.77;;;9.30;99.90;;;;;;4991475;28;20452;-71
2022/10/01 04:23:17;;;;;;;2.83;1.40;;;9.30;99.90;;;;;;4990657;28;20295;-71
2022/10/01 04:25:43;;;;;;;1.70;1.60;;;9.40;99.90;;;;;;5004080;28;20188;-70
2022/10/01 04:28:10;;;;;;;3.27;1.47;;;9.40;99.90;;;;;;4998403;28;20237;-71
2022/10/01 04:30:39;;;;;;;2.90;2.07;;;9.50;99.90;;;;;;4991821;28;20742;-70
2022/10/01 04:33:06;;;;;;;1.33;1.30;;;9.50;99.90;;;;;;4986198;28;20439;-70
2022/10/01 04:35:33;;;;;;;1.70;1.50;;;9.60;99.90;;;;;;5003732;28;20428;-70
2022/10/01 04:38:02;;;;;;;4.80;1.83;;;9.60;99.90;;;;;;5000033;28;20424;-70
2022/10/01 04:40:31;;;;;;;2.90;1.60;;;9.60;99.90;;;;;;4991900;28;20970;-70
2022/10/01 04:42:56;;;;;;;1.80;1.20;;;9.60;99.90;;;;;;4986961;28;21076;-70
2022/10/01 04:45:22;;;;;;;1.70;1.60;;;9.60;99.90;;;;;;5003569;28;20421;-70
2022/10/01 04:47:50;;;;;;;1.60;1.50;;;9.60;99.90;;;;;;5002410;28;20589;-71
2022/10/01 04:50:16;;;;;;;1.43;1.33;;;9.60;99.90;;;;;;4991501;28;20181;-71
2022/10/01 04:52:42;;;;;;;2.10;2.00;;;9.60;99.90;;;;;;4986419;28;20443;-70
2022/10/01 04:55:08;;;;;;;1.73;1.40;;;9.60;99.90;;;;;;5002121;28;20423;-70
2022/10/01 04:57:35;;;;;;;1.87;1.43;;;9.60;99.90;;;;;;5003911;28;20211;-71
2022/10/01 05:00:02;;;;;;;1.33;1.23;;;9.60;99.90;;;;;;4990279;28;20204;-70
2022/10/01 05:02:28;;;;;;;3.63;1.80;;;9.60;99.90;;;;;;4996587;28;20471;-70
2022/10/01 05:04:54;;;;;;;1.60;1.50;;;9.50;99.90;;;;;;4991241;28;20843;-71
2022/10/01 05:07:21;;;;;;;1.67;1.57;;;9.60;99.90;;;;;;4985869;28;20448;-71
2022/10/01 05:09:47;;;;;;;1.73;1.63;;;9.60;99.90;;;;;;4993270;28;20845;-71
2022/10/01 05:12:12;;;;;;;2.47;1.50;;;9.70;99.90;;;;;;4986299;28;20453;-71
2022/10/01 05:14:38;;;;;;;1.77;1.67;;;9.60;99.90;;;;;;5000932;28;20668;-71
2022/10/01 05:17:05;;;;;;;1.57;1.47;;;9.70;99.90;;;;;;4994084;28;20231;-70
2022/10/01 05:19:31;;;;;;;1.60;1.50;;;9.70;99.90;;;;;;5001095;28;20590;-70
2022/10/01 05:21:57;;;;;;;3.83;1.50;;;9.80;99.90;;;;;;5001324;28;20476;-70
2022/10/01 05:24:22;;;;;;;1.50;1.40;;;9.90;99.90;;;;;;4996908;28;20181;-70
2022/10/01 05:26:48;;;;;;;1.40;1.30;;;9.90;99.90;;;;;;4981088;28;20661;-71
2022/10/01 05:29:14;;;;;;;2.50;1.50;;;10.00;99.90;;;;;;4999110;28;20592;-72
2022/10/01 05:31:43;;;;;;;1.53;1.43;;;10.00;99.90;;;;;;4999766;28;20713;-69
2022/10/01 05:34:09;;;;;;;1.73;1.40;;;10.00;99.90;;;;;;5003265;28;20180;-71
2022/10/01 05:36:35;;;;;;;2.20;1.30;;;10.00;99.90;;;;;;4988739;28;20432;-71
2022/10/01 05:39:00;;;;;;;1.40;1.40;;;10.00;99.90;;;;;;4997498;28;20441;-72
2022/10/01 05:41:26;;;;;;;1.73;1.40;;;10.00;99.90;;;;;;4998942;28;20218;-71
2022/10/01 05:43:52;;;;;;;1.60;1.50;;;10.00;99.90;;;;;;4993950;28;20228;-71
2022/10/01 05:46:18;;;;;;;1.20;1.20;;;10.00;99.90;;;;;;4991839;28;20179;-71
2022/10/01 05:48:44;;;;;;;1.00;1.00;;;10.00;99.90;;;;;;5003230;28;20184;-70
2022/10/01 05:51:09;;;;;;;1.50;1.40;;;10.00;99.90;;;;;;5000726;28;20612;-70
2022/10/01 05:53:39;;;;;;;1.67;1.57;;;10.00;99.90;;;;;;4994139;28;20447;-71
2022/10/01 05:56:05;;;;;;;3.90;1.53;;;10.10;99.90;;;;;;4990134;28;20567;-72
2022/10/01 05:58:31;;;;;;;1.67;1.57;;;10.10;99.90;;;;;;5003073;28;20412;-72
2022/10/01 06:00:57;;;;;;;1.93;1.57;;;10.10;99.90;;;;;;5001976;28;20787;-72
2022/10/01 06:03:23;;;;;;;1.60;1.50;;;10.10;99.90;;;;;;4993912;28;20453;-72
2022/10/01 06:05:48;;;;;;;1.70;1.60;;;10.20;99.90;;;;;;4988097;28;20918;-72
2022/10/01 06:08:14;;;;;;;1.80;1.23;;;10.20;99.90;;;;;;5002401;28;20210;-73
2022/10/01 06:10:40;;;;;;;1.93;1.83;;;10.20;99.90;;;;;;5002858;28;20186;-72
2022/10/01 06:13:06;;;;;;;1.50;1.40;;;10.20;99.90;;;;;;4994545;28;20186;-72
2022/10/01 06:15:37;;;;;;;1.20;1.10;;;10.20;99.90;;;;;;4987474;28;20985;-72
2022/10/01 06:18:07;;;;;;;2.10;1.97;;;10.10;99.90;;;;;;5000915;28;20470;-72
2022/10/01 06:20:33;;;;;;;1.80;1.70;;;10.10;99.90;;;;;;4998631;28;20493;-73
2022/10/01 06:22:59;;;;;;;1.77;1.60;;;10.00;99.90;;;;;;4998476;28;20848;-72
2022/10/01 06:25:28;;;;;;;1.50;1.40;;;10.00;99.90;;;;;;5004946;28;20415;-72
2022/10/01 06:27:56;;;;;;;1.97;1.87;;;9.90;99.90;;;;;;5001247;28;20426;-72
2022/10/01 06:30:25;;;;;;;1.63;1.30;;;9.90;99.90;;;;;;5006027;28;20428;-72
2022/10/01 06:32:52;;;;;;;1.77;1.67;;;9.90;99.90;;;;;;4997519;28;20517;-73
2022/10/01 06:35:19;;;;;;;2.33;1.63;;;9.90;99.90;;;;;;5005819;28;20425;-72
2022/10/01 06:37:45;;;;;;;1.43;1.33;;;9.90;99.90;;;;;;4998858;28;20426;-72
2022/10/01 06:40:11;;;;;;;1.57;1.47;;;9.90;99.90;;;;;;4988776;28;20441;-73
2022/10/01 06:42:36;;;;;;;2.63;2.17;;;9.90;99.90;;;;;;5002157;28;20623;-73
2022/10/01 06:45:02;;;;;;;3.27;1.90;;;9.90;99.90;;;;;;5003615;28;20265;-72
2022/10/01 06:47:28;;;;;;;2.23;2.13;;;9.90;99.90;;;;;;5002098;28;20186;-75
2022/10/01 06:49:53;;;;;;;3.80;1.90;;;9.90;99.90;;;;;;4985620;28;20412;-72
2022/10/01 06:55:03;;;;;;;1.60;1.50;;;10.00;99.90;;;;;;5001310;28;20316;-71
2022/10/01 06:57:29;;;;;;;5.03;1.97;;;10.00;99.90;;;;;;5000872;28;20521;-72
2022/10/01 06:59:57;;;;;;;6.80;2.87;;;10.00;99.90;;;;;;4985433;28;20304;-72
2022/10/01 07:02:27;;;;;;;2.03;1.90;;;10.00;99.90;;;;;;5001886;28;21005;-72
2022/10/01 07:04:59;;;;;;;1.80;1.70;;;9.90;99.90;;;;;;5002157;28;20516;-72
2022/10/01 07:07:29;;;;;;;2.07;1.97;;;9.90;99.90;;;;;;5000831;28;20416;-72
2022/10/01 07:09:55;;;;;;;2.30;2.10;;;9.90;99.90;;;;;;4984582;28;20427;-72
2022/10/01 07:12:20;;;;;;;2.13;1.93;;;9.90;99.90;;;;;;5001867;28;20539;-72
2022/10/01 07:14:45;;;;;;;1.80;1.70;;;9.90;99.90;;;;;;5001864;28;20697;-72
2022/10/01 07:17:11;;;;;;;2.17;2.00;;;9.90;99.90;;;;;;5000431;28;20197;-72
2022/10/01 07:19:36;;;;;;;3.77;2.30;;;10.00;99.90;;;;;;4984712;28;20194;-72
2022/10/01 07:22:02;;;;;;;2.67;2.47;;;10.00;99.90;;;;;;4999633;28;20777;-71
2022/10/01 07:24:27;;;;;;;9.10;1.83;;;9.90;99.90;;;;;;4985121;28;20185;-72
2022/10/01 07:26:54;;;;;;;2.90;2.60;;;9.90;99.90;;;;;;4998541;28;20199;-72
2022/10/01 07:29:23;;;;;;;4.77;1.80;;;10.00;99.90;;;;;;4998770;28;20549;-72
2022/10/01 07:31:50;;;;;;;4.60;3.67;;;10.00;99.90;;;;;;4997271;28;20471;-72
2022/10/01 07:34:16;;;;;;;5.00;3.20;;;10.00;99.90;;;;;;4996708;28;20470;-72
2022/10/01 07:36:44;;;;;;;5.63;3.80;;;10.00;99.90;;;;;;4996217;28;20436;-72
2022/10/01 07:39:10;;;;;;;3.97;3.33;;;10.00;99.90;;;;;;4990170;28;20186;-72
2022/10/01 07:41:36;;;;;;;2.00;1.60;;;10.00;99.90;;;;;;4991079;28;20457;-72
2022/10/01 07:44:03;;;;;;;1.80;1.70;;;10.00;99.90;;;;;;4990063;28;20433;-72
2022/10/01 07:46:28;;;;;;;1.63;1.53;;;10.00;99.90;;;;;;4991304;28;20598;-72
2022/10/01 07:48:54;;;;;;;2.60;1.77;;;10.00;99.90;;;;;;5004762;28;20420;-72
2022/10/01 07:51:19;;;;;;;1.43;1.33;;;10.00;99.90;;;;;;4996202;28;20193;-72
2022/10/01 07:53:45;;;;;;;6.03;1.50;;;10.00;99.90;;;;;;4990864;28;20266;-72
2022/10/01 07:56:11;;;;;;;1.70;1.60;;;10.00;99.90;;;;;;5003744;28;20209;-72
2022/10/01 07:58:36;;;;;;;2.30;1.90;;;10.00;99.90;;;;;;5004737;28;20550;-73
2022/10/01 08:01:03;;;;;;;2.30;1.67;;;10.10;99.90;;;;;;4996324;28;20258;-73
2022/10/01 08:03:28;;;;;;;3.90;1.73;;;10.00;99.90;;;;;;4994340;28;20213;-73
2022/10/01 08:05:54;;;;;;;1.73;1.63;;;10.00;99.90;;;;;;4995972;28;20439;-72
2022/10/01 08:08:20;;;;;;;2.90;2.70;;;10.00;99.90;;;;;;4988978;28;20227;-72
2022/10/01 08:10:45;;;;;;;4.27;2.03;;;10.00;99.90;;;;;;5001034;28;20181;-72
2022/10/01 08:13:13;;;;;;;1.87;1.47;;;10.00;99.90;;;;;;5003618;28;20176;-72
2022/10/01 08:15:40;;;;;;;1.30;1.20;;;10.10;99.90;;;;;;4999982;28;20179;-72
2022/10/01 08:18:06;;;;;;;1.50;1.40;;;10.10;99.90;;;;;;4985928;28;20435;-72
2022/10/01 08:20:32;;;;;;;1.70;1.60;;;10.10;99.90;;;;;;5000534;28;20428;-73
2022/10/01 08:23:16;;;;;;;2.80;1.27;;;10.20;99.90;;;;;;5000601;28;20215;-72
2022/10/01 08:25:43;;;;;;;1.53;1.43;;;10.20;99.90;;;;;;4998401;28;21051;-72
2022/10/01 08:28:10;;;;;;;2.30;1.60;;;10.30;99.90;;;;;;4986683;28;20417;-72
2022/10/01 08:30:38;;;;;;;2.40;1.40;;;10.20;99.90;;;;;;5000114;28;20420;-72
2022/10/01 08:33:04;;;;;;;1.63;1.53;;;10.30;99.90;;;;;;4995723;28;20997;-72
2022/10/01 08:35:30;;;;;;;1.70;1.20;;;10.30;99.90;;;;;;5000900;28;20551;-72
2022/10/01 08:38:00;;;;;;;1.90;1.80;;;10.40;99.90;;;;;;4984397;28;20598;-72
2022/10/01 08:40:26;;;;;;;3.70;2.47;;;10.40;99.90;;;;;;4999898;28;20199;-72
2022/10/01 08:43:05;;;;;;;2.03;1.83;;;10.40;99.90;;;;;;4998956;28;20469;-72
2022/10/01 08:45:39;;;;;;;3.13;1.00;;;10.40;99.90;;;;;;4995328;28;20313;-72
2022/10/01 08:48:14;;;;;;;2.60;1.17;;;10.40;99.90;;;;;;5000235;28;20443;-72
2022/10/01 08:50:53;;;;;;;3.03;1.83;;;10.50;99.90;;;;;;4994335;28;20425;-71
2022/10/01 08:53:39;;;;;;;1.33;1.23;;;10.50;99.90;;;;;;4992381;28;20502;-72
2022/10/01 08:56:13;;;;;;;1.53;1.20;;;10.50;99.90;;;;;;4997259;28;20504;-72
2022/10/01 08:58:47;;;;;;;1.87;1.70;;;10.50;99.90;;;;;;4985491;28;20772;-72
2022/10/01 09:01:13;;;;;;;2.30;1.80;;;10.50;99.90;;;;;;4989647;28;20460;-72
2022/10/01 09:03:39;;;;;;;1.17;1.00;;;10.50;99.90;;;;;;4985292;28;20470;-72
2022/10/01 09:06:37;;;;;;;5.33;1.60;;;10.60;99.90;;;;;;4993564;28;20256;-72
2022/10/01 09:09:22;;;;;;;1.40;1.27;;;10.60;99.90;;;;;;4958366;28;20420;-72
2022/10/01 09:12:17;;;;;;;1.63;1.20;;;10.70;99.90;;;;;;4988621;28;20449;-72
2022/10/01 09:15:02;;;;;;;1.37;1.03;;;10.80;99.90;;;;;;4982115;28;20420;-72
2022/10/01 09:18:09;;;;;;;2.40;1.27;;;10.80;99.90;;;;;;4984427;28;20423;-72
2022/10/01 09:20:41;;;;;;;2.97;1.10;;;10.90;99.90;;;;;;4974724;28;20839;-69
2022/10/01 09:23:18;;;;;;;1.53;1.20;;;10.90;99.90;;;;;;4989785;28;20466;-71
2022/10/01 09:25:49;;;;;;;2.77;1.17;;;10.90;99.90;;;;;;4984779;28;20444;-72
2022/10/01 09:28:29;;;;;;;2.90;1.40;;;11.00;99.90;;;;;;4988502;28;20465;-72
2022/10/01 09:30:56;;;;;;;1.10;1.10;;;11.00;99.90;;;;;;4981760;28;20418;-72
2022/10/01 09:33:28;;;;;;;1.27;1.17;;;11.00;99.90;;;;;;4996894;28;20428;-74
2022/10/01 09:36:35;;;;;;;0.97;0.97;;;11.10;99.90;;;;;;4993927;28;20935;-73
2022/10/01 09:39:24;;;;;;;1.10;1.00;;;11.10;99.90;;;;;;4985275;28;20508;-72
2022/10/01 09:41:50;;;;;;;1.40;1.30;;;11.10;99.90;;;;;;4988164;28;20461;-73
2022/10/01 09:44:27;;;;;;;0.80;0.80;;;11.10;99.90;;;;;;4989157;28;20459;-72
2022/10/01 09:46:54;;;;;;;4.70;1.10;;;11.10;99.90;;;;;;5003168;28;20421;-72
2022/10/01 09:49:33;;;;;;;1.10;1.00;;;11.10;99.90;;;;;;4995970;28;20779;-73
2022/10/01 09:52:25;;;;;;;1.67;0.90;;;11.10;99.90;;;;;;4992970;28;20444;-72
2022/10/01 09:55:25;;;;;;;0.83;0.83;;;11.10;99.90;;;;;;4988467;28;20426;-72
2022/10/01 09:57:52;;;;;;;0.93;0.93;;;11.20;99.90;;;;;;4987680;28;20755;-73
2022/10/01 10:00:20;;;;;;;0.83;0.83;;;11.20;99.90;;;;;;4992828;28;20421;-72
2022/10/01 10:02:47;;;;;;;0.87;0.83;;;11.20;99.90;;;;;;5003004;28;20484;-73
2022/10/01 10:05:16;;;;;;;0.67;0.67;;;11.30;99.90;;;;;;5003173;28;20436;-71
2022/10/01 10:08:07;;;;;;;1.03;0.93;;;11.30;99.90;;;;;;4989407;28;20445;-73
2022/10/01 10:10:35;;;;;;;1.00;1.00;;;11.30;99.90;;;;;;4993724;28;20514;-72
2022/10/01 10:13:33;;;;;;;1.80;0.80;;;11.40;99.90;;;;;;5002177;28;20460;-72
2022/10/01 10:16:06;;;;;;;1.20;1.10;;;11.40;99.90;;;;;;4995569;28;20424;-72
2022/10/01 10:18:35;;;;;;;0.70;0.70;;;11.40;99.90;;;;;;4989652;28;20426;-72
2022/10/01 10:21:06;;;;;;;0.83;0.83;;;11.50;99.90;;;;;;5003983;28;20438;-72
2022/10/01 10:23:33;;;;;;;1.53;0.90;;;11.50;99.90;;;;;;4994199;28;20457;-72
2022/10/01 10:26:01;;;;;;;1.53;0.70;;;11.50;99.90;;;;;;5002809;28;20419;-72
2022/10/01 10:28:38;;;;;;;2.60;0.87;;;11.50;99.90;;;;;;4988944;28;20479;-72
2022/10/01 10:31:34;;;;;;;0.73;0.73;;;11.60;99.90;;;;;;4997390;28;20446;-72
2022/10/01 10:34:16;;;;;;;0.70;0.67;;;11.50;99.90;;;;;;4989832;28;20437;-71
2022/10/01 10:36:44;;;;;;;2.40;0.60;;;11.50;99.90;;;;;;4994514;28;20410;-72
2022/10/01 10:39:23;;;;;;;1.30;0.70;;;11.60;99.90;;;;;;4978668;28;20835;-72
2022/10/01 10:41:50;;;;;;;0.77;0.77;;;11.60;99.90;;;;;;4975193;28;20823;-72
2022/10/01 10:44:20;;;;;;;1.33;0.87;;;11.60;99.90;;;;;;4990525;28;20428;-72
2022/10/01 10:46:47;;;;;;;0.63;0.60;;;11.70;99.90;;;;;;5005894;28;20437;-72
2022/10/01 10:49:31;;;;;;;0.70;0.70;;;11.80;99.90;;;;;;4999405;28;20431;-72
2022/10/01 10:51:59;;;;;;;0.70;0.70;;;11.70;99.90;;;;;;4993737;28;20440;-72
2022/10/01 10:54:36;;;;;;;0.97;0.60;;;11.80;99.90;;;;;;4990871;28;20416;-71
2022/10/01 10:57:15;;;;;;;1.50;0.50;;;11.90;99.90;;;;;;5004778;28;20507;-68
2022/10/01 10:59:40;;;;;;;0.50;0.50;;;11.90;99.90;;;;;;5000332;28;20424;-71
2022/10/01 11:02:15;;;;;;;0.60;0.60;;;12.00;99.90;;;;;;5002134;28;20496;-72
2022/10/01 11:04:44;;;;;;;0.77;0.60;;;12.10;99.90;;;;;;4989652;28;20240;-72
2022/10/01 11:07:12;;;;;;;3.80;0.60;;;12.30;99.90;;;;;;4991134;28;20430;-72
2022/10/01 11:10:05;;;;;;;0.70;0.70;;;12.40;99.90;;;;;;4994201;28;20442;-72
2022/10/01 11:12:55;;;;;;;0.70;0.70;;;12.60;99.90;;;;;;5000267;28;20484;-72
2022/10/01 11:15:42;;;;;;;3.60;0.50;;;12.70;99.90;;;;;;4995961;28;20422;-72
2022/10/01 11:18:16;;;;;;;0.80;0.50;;;12.70;99.90;;;;;;5003858;28;20451;-72
2022/10/01 11:21:08;;;;;;;0.60;0.50;;;12.70;99.90;;;;;;4994456;28;20419;-72
2022/10/01 11:23:59;;;;;;;0.63;0.63;;;12.70;99.90;;;;;;4980691;28;20473;-72
2022/10/01 11:26:29;;;;;;;0.50;0.47;;;12.50;99.90;;;;;;5004879;28;20448;-72
2022/10/01 11:29:15;;;;;;;0.60;0.60;;;12.50;99.90;;;;;;5000573;28;20405;-72
2022/10/01 11:32:09;;;;;;;1.47;0.60;;;12.50;99.90;;;;;;4991067;28;20446;-72
2022/10/01 11:34:42;;;;;;;0.50;0.50;;;12.50;99.90;;;;;;4983383;28;20427;-72
2022/10/01 11:37:19;;;;;;;1.03;0.60;;;12.60;99.90;;;;;;4996997;28;20413;-72
2022/10/01 11:39:50;;;;;;;3.13;0.70;;;12.60;99.90;;;;;;4994171;28;20849;-72
2022/10/01 11:42:23;;;;;;;0.70;0.70;;;12.50;99.90;;;;;;5000504;28;20454;-73
2022/10/01 11:45:12;;;;;;;0.40;0.40;;;12.60;99.90;;;;;;4999245;28;20445;-72
2022/10/01 11:47:49;;;;;;;1.53;0.50;;;12.60;99.90;;;;;;4989608;28;20842;-72
2022/10/01 11:50:19;;;;;;;0.60;0.60;;;12.60;99.90;;;;;;4988087;28;20419;-72
2022/10/01 11:53:01;;;;;;;0.60;0.60;;;12.60;99.90;;;;;;4989453;28;20454;-72
2022/10/01 11:58:51;;;;;;;0.77;0.53;;;12.60;99.90;;;;;;5001782;28;20441;-72
2022/10/01 12:01:42;;;;;;;0.43;0.43;;;12.60;99.90;;;;;;4989988;28;20473;-71
2022/10/01 12:04:34;;;;;;;1.03;0.50;;;12.50;99.90;;;;;;4985061;28;20442;-70
2022/10/01 12:07:12;;;;;;;0.50;0.50;;;12.60;99.90;;;;;;5000983;28;20842;-72
2022/10/01 12:09:56;;;;;;;0.50;0.50;;;12.60;99.90;;;;;;4988949;28;20426;-71
2022/10/01 12:12:28;;;;;;;0.90;0.77;;;12.60;99.90;;;;;;4991701;28;20472;-72
2022/10/01 12:15:19;;;;;;;1.80;0.50;;;12.60;99.90;;;;;;5005528;28;20922;-72
2022/10/01 12:18:10;;;;;;;2.30;0.50;;;12.60;99.90;;;;;;4987425;28;20414;-71
2022/10/01 12:20:41;;;;;;;0.50;0.50;;;12.60;99.90;;;;;;4997833;28;20411;-68
2022/10/01 12:23:16;;;;;;;0.60;0.60;;;12.70;99.90;;;;;;4998954;28;20501;-71
2022/10/01 12:25:54;;;;;;;0.50;0.50;;;12.80;99.90;;;;;;4998854;28;20478;-72
2022/10/01 12:29:06;;;;;;;0.63;0.60;;;12.90;99.90;;;;;;4976764;28;20414;-72
2022/10/01 12:31:58;;;;;;;1.67;0.50;;;12.90;99.90;;;;;;4988404;28;20461;-72
2022/10/01 12:34:44;;;;;;;0.50;0.50;;;12.90;99.90;;;;;;4993456;28;20918;-69
2022/10/01 12:37:32;;;;;;;0.50;0.50;;;12.90;99.90;;;;;;4992011;28;20802;-72
2022/10/01 12:40:19;;;;;;;0.70;0.70;;;12.80;99.90;;;;;;4997105;28;20418;-72
2022/10/01 12:42:55;;;;;;;0.70;0.70;;;12.80;99.90;;;;;;4994125;28;20473;-71
2022/10/01 12:45:45;;;;;;;0.60;0.50;;;12.90;99.90;;;;;;4995922;28;20417;-72
2022/10/01 12:48:21;;;;;;;1.00;0.90;;;13.00;99.90;;;;;;4997453;28;20449;-71
2022/10/01 12:51:08;;;;;;;0.70;0.70;;;13.00;99.90;;;;;;4992462;28;20513;-71
2022/10/01 12:53:40;;;;;;;2.10;0.70;;;13.00;99.90;;;;;;4998474;28;20423;-71
2022/10/01 12:56:12;;;;;;;1.00;0.70;;;13.10;99.90;;;;;;4990314;28;20433;-71
2022/10/01 12:58:44;;;;;;;0.60;0.50;;;13.20;99.90;;;;;;5000516;28;20442;-71
2022/10/01 13:01:18;;;;;;;1.90;0.57;;;13.20;99.90;;;;;;5001421;28;20863;-71
2022/10/01 13:04:04;;;;;;;0.50;0.50;;;13.30;99.90;;;;;;5000464;28;21682;-71
2022/10/01 13:06:35;;;;;;;0.50;0.50;;;13.40;99.90;;;;;;4990783;28;20418;-71
2022/10/01 13:09:09;;;;;;;0.90;0.50;;;13.60;99.90;;;;;;4990828;28;20418;-71
2022/10/01 13:12:01;;;;;;;0.53;0.53;;;13.70;99.90;;;;;;4986120;28;20946;-71
2022/10/01 13:14:31;;;;;;;0.60;0.60;;;14.00;99.90;;;;;;4996365;28;20432;-69
2022/10/01 13:17:18;;;;;;;0.70;0.50;;;14.20;99.90;;;;;;4995556;28;20414;-71
2022/10/01 13:19:58;;;;;;;4.53;0.50;;;14.40;99.90;;;;;;4996189;28;20927;-72
2022/10/01 13:22:32;;;;;;;0.60;0.60;;;14.60;99.90;;;;;;4995500;28;20457;-71
2022/10/01 13:25:31;;;;;;;0.93;0.50;;;14.70;99.90;;;;;;4995278;28;20480;-71
2022/10/01 13:27:57;;;;;;;0.70;0.50;;;14.80;99.90;;;;;;4991644;28;20872;-72
2022/10/01 13:30:25;;;;;;;0.87;0.57;;;14.90;99.90;;;;;;4987758;28;20426;-71
2022/10/01 13:32:53;;;;;;;1.90;0.60;;;15.00;99.90;;;;;;4987333;28;20276;-71
2022/10/01 13:35:24;;;;;;;5.70;0.60;;;15.10;99.90;;;;;;4994177;28;20462;-71
2022/10/01 13:37:50;;;;;;;0.70;0.40;;;15.10;99.90;;;;;;4992019;28;20507;-71
2022/10/01 13:40:34;;;;;;;0.50;0.50;;;15.10;99.90;;;;;;4991677;28;20449;-71
2022/10/01 13:43:07;;;;;;;1.23;0.50;;;15.30;99.90;;;;;;4985168;28;20302;-72
2022/10/01 13:45:36;;;;;;;1.73;0.50;;;15.30;99.90;;;;;;4991440;28;20462;-71
2022/10/01 13:48:23;;;;;;;1.77;0.50;;;15.30;99.90;;;;;;4993968;28;20418;-72
2022/10/01 13:51:05;;;;;;;0.47;0.40;;;15.30;99.90;;;;;;4983637;28;20414;-71
2022/10/01 13:53:57;;;;;;;1.13;0.50;;;15.30;99.90;;;;;;5003897;28;20437;-71
2022/10/01 13:56:35;;;;;;;0.40;0.40;;;15.20;99.90;;;;;;4999876;28;20425;-72
2022/10/01 13:59:03;;;;;;;2.10;0.40;;;15.10;99.90;;;;;;4982947;28;20461;-70
2022/10/01 14:01:39;;;;;;;0.77;0.50;;;15.10;99.90;;;;;;5003620;28;20442;-72
2022/10/01 14:04:22;;;;;;;1.23;0.50;;;15.00;99.90;;;;;;4987320;28;20445;-72
2022/10/01 14:06:56;;;;;;;0.50;0.40;;;15.10;99.90;;;;;;4997966;28;20420;-72
2022/10/01 14:09:44;;;;;;;0.70;0.50;;;15.10;99.90;;;;;;4977982;28;20435;-72
2022/10/01 14:18:09;;;;;;;0.90;0.47;;;15.40;99.90;;;;;;4977229;28;20473;-72
2022/10/01 14:20:51;;;;;;;0.50;0.40;;;15.50;99.90;;;;;;4989672;28;20482;-71
2022/10/01 14:23:26;;;;;;;1.80;0.50;;;15.40;99.90;;;;;;5002565;28;20462;-72
2022/10/01 14:26:10;;;;;;;0.50;0.50;;;15.50;99.90;;;;;;5000295;28;20827;-71
2022/10/01 14:29:01;;;;;;;1.70;0.40;;;15.50;99.90;;;;;;5001374;28;20484;-71
2022/10/01 14:32:01;;;;;;;1.70;0.67;;;15.50;99.90;;;;;;4996861;28;20460;-71
2022/10/01 14:34:46;;;;;;;1.10;0.60;;;15.50;99.90;;;;;;4990633;28;20492;-71
2022/10/01 14:37:16;;;;;;;0.60;0.50;;;15.50;99.90;;;;;;4998855;28;20427;-71
2022/10/01 14:39:41;;;;;;;1.60;0.47;;;15.50;99.90;;;;;;4994798;28;20945;-71
2022/10/01 14:42:15;;;;;;;2.20;0.50;;;15.50;99.90;;;;;;4991440;28;20463;-72
2022/10/01 14:44:44;;;;;;;2.83;1.17;;;15.40;99.90;;;;;;4989051;28;20695;-71
2022/10/01 14:47:13;;;;;;;0.90;0.40;;;15.40;99.90;;;;;;4993310;28;20447;-71
2022/10/01 14:49:39;;;;;;;1.10;0.50;;;15.50;99.90;;;;;;4987607;28;20445;-72
2022/10/01 14:52:12;;;;;;;0.70;0.40;;;15.40;99.90;;;;;;5001340;28;20820;-72
2022/10/01 14:54:50;;;;;;;6.57;0.57;;;15.40;99.90;;;;;;5005662;28;20189;-71
2022/10/01 14:57:26;;;;;;;3.97;1.43;;;15.40;99.90;;;;;;5004549;28;20439;-72